This is the latest recevied weather packets stored in our database for station/object KY4LEX. If no packets are shown the sender has not sent any weather packets the latest 1 day(s).
| Time | Temp. | Humidity | Pressure | Rain* | Wind** | Luminosity | Snow |
|---|---|---|---|---|---|---|---|
| 1778023350 | 19.44° C | 65% | 1013.3 hPa | 0 mm | - | 30 W/m² | - |
| 1778021836 | 19.44° C | 68% | 1013.5 hPa | 0 mm | - | 44 W/m² | - |
| 1778020016 | 19.44° C | 73% | 1013.8 hPa | 0 mm | - | 57 W/m² | - |
| 1778019712 | 19.44° C | 71% | 1013.8 hPa | 0 mm | - | 86 W/m² | - |
| 1778019106 | 19.44° C | 69% | 1013.9 hPa | 0 mm | - | 46 W/m² | - |
| 1778016685 | 18.89° C | 75% | 1014.5 hPa | 0 mm | - | 28 W/m² | - |
| 1778016079 | 18.89° C | 73% | 1014.5 hPa | 0 mm | - | 29 W/m² | - |
| 1778014564 | 18.89° C | 71% | 1014.6 hPa | 0 mm | - | 47 W/m² | - |
| 1778013352 | 18.89° C | 72% | 1015 hPa | 0 mm | - | 55 W/m² | - |
| 1778009411 | 21.67° C | 52% | 1015.3 hPa | 0 mm | - | 121 W/m² | - |
| 1778008505 | 22.22° C | 51% | 1015.8 hPa | 0 mm | - | 535 W/m² | - |
| 1778006986 | 21.67° C | 54% | 1016 hPa | 0 mm | - | 206 W/m² | - |
| 1778006683 | 22.22° C | 53% | 1015.9 hPa | 0 mm | - | 191 W/m² | - |
| 1778004257 | 21.67° C | 54% | 1015.8 hPa | 0 mm | - | 288 W/m² | - |
| 1778001531 | 22.22° C | 54% | 1016.6 hPa | 0 mm | - | 203 W/m² | - |
| 1777998500 | 21.11° C | 55% | 1016.7 hPa | 0 mm | - | 270 W/m² | - |
| 1777998196 | 21.11° C | 55% | 1016.9 hPa | 0 mm | - | 247 W/m² | - |
| 1777997288 | 21.67° C | 55% | 1016.9 hPa | 0 mm | - | 238 W/m² | - |
| 1777993956 | 20.56° C | 58% | 1016.7 hPa | 0 mm | - | 284 W/m² | - |
| 1777992446 | 20° C | 59% | 1016.2 hPa | 0 mm | - | 211 W/m² | - |
| 1777991841 | 19.44° C | 61% | 1016.6 hPa | 0 mm | - | 209 W/m² | - |
* Rain latest hour (hover to see other rain measurements)
** Current wind speed in m/s (hover to see current wind gust speed)